sensor_id;sensor_type;location;lat;lon;timestamp;P1;durP1;ratioP1;P2;durP2;ratioP2
52854;SDS011;38719;51.418;7.286;2023-05-02T00:02:01;19.52;;;12.60;;
52854;SDS011;38719;51.418;7.286;2023-05-02T00:04:29;20.63;;;12.68;;
52854;SDS011;38719;51.418;7.286;2023-05-02T00:06:56;20.17;;;12.85;;
52854;SDS011;38719;51.418;7.286;2023-05-02T00:09:24;20.85;;;13.18;;
52854;SDS011;38719;51.418;7.286;2023-05-02T00:11:51;28.77;;;13.43;;
52854;SDS011;38719;51.418;7.286;2023-05-02T00:14:20;24.33;;;14.98;;
52854;SDS011;38719;51.418;7.286;2023-05-02T00:16:48;24.60;;;15.05;;
52854;SDS011;38719;51.418;7.286;2023-05-02T00:19:15;26.27;;;15.43;;
52854;SDS011;38719;51.418;7.286;2023-05-02T00:21:45;27.60;;;15.85;;
52854;SDS011;38719;51.418;7.286;2023-05-02T00:24:13;29.85;;;16.92;;
52854;SDS011;38719;51.418;7.286;2023-05-02T00:26:41;26.75;;;16.42;;
52854;SDS011;38719;51.418;7.286;2023-05-02T00:29:09;28.50;;;16.17;;
52854;SDS011;38719;51.418;7.286;2023-05-02T00:31:37;25.40;;;16.38;;
52854;SDS011;38719;51.418;7.286;2023-05-02T00:34:07;28.75;;;17.60;;
52854;SDS011;38719;51.418;7.286;2023-05-02T00:36:34;26.75;;;16.90;;
52854;SDS011;38719;51.418;7.286;2023-05-02T00:39:02;32.65;;;18.55;;
52854;SDS011;38719;51.418;7.286;2023-05-02T00:41:30;28.42;;;17.40;;
52854;SDS011;38719;51.418;7.286;2023-05-02T00:43:57;29.75;;;18.13;;
52854;SDS011;38719;51.418;7.286;2023-05-02T00:46:25;31.73;;;18.50;;
52854;SDS011;38719;51.418;7.286;2023-05-02T00:48:54;30.77;;;18.60;;
52854;SDS011;38719;51.418;7.286;2023-05-02T00:51:22;33.42;;;20.00;;
52854;SDS011;38719;51.418;7.286;2023-05-02T00:53:49;35.80;;;20.52;;
52854;SDS011;38719;51.418;7.286;2023-05-02T00:56:17;34.30;;;19.50;;
52854;SDS011;38719;51.418;7.286;2023-05-02T00:58:45;35.03;;;20.42;;
52854;SDS011;38719;51.418;7.286;2023-05-02T01:01:15;38.47;;;21.60;;
52854;SDS011;38719;51.418;7.286;2023-05-02T01:03:58;36.00;;;20.17;;
52854;SDS011;38719;51.418;7.286;2023-05-02T01:06:37;34.30;;;20.25;;
52854;SDS011;38719;51.418;7.286;2023-05-02T01:09:17;37.78;;;21.60;;
52854;SDS011;38719;51.418;7.286;2023-05-02T01:11:55;37.05;;;21.38;;
52854;SDS011;38719;51.418;7.286;2023-05-02T01:14:28;38.00;;;20.48;;
52854;SDS011;38719;51.418;7.286;2023-05-02T01:16:59;38.45;;;20.60;;
52854;SDS011;38719;51.418;7.286;2023-05-02T01:19:33;35.17;;;20.83;;
52854;SDS011;38719;51.418;7.286;2023-05-02T01:22:03;38.10;;;21.17;;
52854;SDS011;38719;51.418;7.286;2023-05-02T01:24:34;43.63;;;22.77;;
52854;SDS011;38719;51.418;7.286;2023-05-02T01:27:10;39.28;;;21.52;;
52854;SDS011;38719;51.418;7.286;2023-05-02T01:29:45;43.80;;;22.15;;
52854;SDS011;38719;51.418;7.286;2023-05-02T01:32:17;41.50;;;21.95;;
52854;SDS011;38719;51.418;7.286;2023-05-02T01:34:48;40.15;;;24.00;;
52854;SDS011;38719;51.418;7.286;2023-05-02T01:37:16;45.30;;;22.67;;
52854;SDS011;38719;51.418;7.286;2023-05-02T01:39:45;44.10;;;22.80;;
52854;SDS011;38719;51.418;7.286;2023-05-02T01:42:17;42.85;;;23.92;;
52854;SDS011;38719;51.418;7.286;2023-05-02T01:44:47;41.35;;;23.67;;
52854;SDS011;38719;51.418;7.286;2023-05-02T01:47:18;43.22;;;23.63;;
52854;SDS011;38719;51.418;7.286;2023-05-02T01:49:48;48.70;;;25.08;;
52854;SDS011;38719;51.418;7.286;2023-05-02T01:52:16;45.38;;;23.92;;
52854;SDS011;38719;51.418;7.286;2023-05-02T01:54:47;47.85;;;25.65;;
52854;SDS011;38719;51.418;7.286;2023-05-02T01:57:18;48.42;;;25.17;;
52854;SDS011;38719;51.418;7.286;2023-05-02T01:59:47;49.90;;;24.77;;
52854;SDS011;38719;51.418;7.286;2023-05-02T02:02:16;48.35;;;25.15;;
52854;SDS011;38719;51.418;7.286;2023-05-02T02:04:45;50.92;;;24.40;;
52854;SDS011;38719;51.418;7.286;2023-05-02T02:07:14;47.33;;;25.75;;
52854;SDS011;38719;51.418;7.286;2023-05-02T02:09:42;50.40;;;24.95;;
52854;SDS011;38719;51.418;7.286;2023-05-02T02:12:10;55.28;;;26.90;;
52854;SDS011;38719;51.418;7.286;2023-05-02T02:14:41;47.38;;;24.52;;
52854;SDS011;38719;51.418;7.286;2023-05-02T02:17:14;47.92;;;24.13;;
52854;SDS011;38719;51.418;7.286;2023-05-02T02:22:16;46.60;;;25.38;;
52854;SDS011;38719;51.418;7.286;2023-05-02T02:24:46;46.92;;;24.17;;
52854;SDS011;38719;51.418;7.286;2023-05-02T02:27:14;48.40;;;24.33;;
52854;SDS011;38719;51.418;7.286;2023-05-02T02:29:42;41.97;;;22.48;;
52854;SDS011;38719;51.418;7.286;2023-05-02T02:32:10;44.75;;;22.48;;
52854;SDS011;38719;51.418;7.286;2023-05-02T02:34:38;50.95;;;23.63;;
52854;SDS011;38719;51.418;7.286;2023-05-02T02:37:07;48.80;;;23.08;;
52854;SDS011;38719;51.418;7.286;2023-05-02T02:39:43;45.97;;;23.42;;
52854;SDS011;38719;51.418;7.286;2023-05-02T02:42:21;48.53;;;23.73;;
52854;SDS011;38719;51.418;7.286;2023-05-02T02:44:59;47.83;;;23.50;;
52854;SDS011;38719;51.418;7.286;2023-05-02T02:47:39;42.75;;;23.20;;
52854;SDS011;38719;51.418;7.286;2023-05-02T02:50:13;43.03;;;22.60;;
52854;SDS011;38719;51.418;7.286;2023-05-02T02:52:51;43.78;;;23.00;;
52854;SDS011;38719;51.418;7.286;2023-05-02T02:55:28;46.65;;;22.90;;
52854;SDS011;38719;51.418;7.286;2023-05-02T02:58:06;40.28;;;20.52;;
52854;SDS011;38719;51.418;7.286;2023-05-02T03:00:44;42.95;;;20.73;;
52854;SDS011;38719;51.418;7.286;2023-05-02T03:03:13;46.20;;;21.40;;
52854;SDS011;38719;51.418;7.286;2023-05-02T03:05:43;41.25;;;20.83;;
52854;SDS011;38719;51.418;7.286;2023-05-02T03:08:11;38.05;;;20.52;;
52854;SDS011;38719;51.418;7.286;2023-05-02T03:10:39;40.85;;;20.10;;
52854;SDS011;38719;51.418;7.286;2023-05-02T03:13:06;41.38;;;19.55;;
52854;SDS011;38719;51.418;7.286;2023-05-02T03:18:38;41.67;;;18.73;;
52854;SDS011;38719;51.418;7.286;2023-05-02T03:21:08;35.53;;;18.00;;
52854;SDS011;38719;51.418;7.286;2023-05-02T03:23:35;35.60;;;18.42;;
52854;SDS011;38719;51.418;7.286;2023-05-02T03:26:03;34.58;;;16.73;;
52854;SDS011;38719;51.418;7.286;2023-05-02T03:28:31;35.08;;;17.23;;
52854;SDS011;38719;51.418;7.286;2023-05-02T03:30:58;43.67;;;16.95;;
52854;SDS011;38719;51.418;7.286;2023-05-02T03:33:26;32.75;;;17.50;;
52854;SDS011;38719;51.418;7.286;2023-05-02T03:35:53;38.65;;;17.08;;
52854;SDS011;38719;51.418;7.286;2023-05-02T03:38:22;33.22;;;15.63;;
52854;SDS011;38719;51.418;7.286;2023-05-02T03:40:50;31.50;;;15.63;;
52854;SDS011;38719;51.418;7.286;2023-05-02T03:43:17;26.00;;;14.07;;
52854;SDS011;38719;51.418;7.286;2023-05-02T03:45:45;36.25;;;14.73;;
52854;SDS011;38719;51.418;7.286;2023-05-02T03:48:14;27.73;;;14.63;;
52854;SDS011;38719;51.418;7.286;2023-05-02T03:50:41;25.60;;;12.95;;
52854;SDS011;38719;51.418;7.286;2023-05-02T03:53:09;20.40;;;12.00;;
52854;SDS011;38719;51.418;7.286;2023-05-02T03:55:39;26.38;;;12.85;;
52854;SDS011;38719;51.418;7.286;2023-05-02T03:58:07;20.50;;;10.90;;
52854;SDS011;38719;51.418;7.286;2023-05-02T04:00:36;23.70;;;11.98;;
52854;SDS011;38719;51.418;7.286;2023-05-02T04:03:04;24.40;;;13.20;;
52854;SDS011;38719;51.418;7.286;2023-05-02T04:05:32;26.30;;;13.43;;
52854;SDS011;38719;51.418;7.286;2023-05-02T04:08:00;25.48;;;13.93;;
52854;SDS011;38719;51.418;7.286;2023-05-02T04:10:27;29.45;;;14.65;;
52854;SDS011;38719;51.418;7.286;2023-05-02T04:12:57;26.85;;;14.52;;
52854;SDS011;38719;51.418;7.286;2023-05-02T04:15:24;26.33;;;12.18;;
52854;SDS011;38719;51.418;7.286;2023-05-02T04:17:52;24.10;;;13.05;;
52854;SDS011;38719;51.418;7.286;2023-05-02T04:20:20;23.17;;;13.48;;
52854;SDS011;38719;51.418;7.286;2023-05-02T04:22:47;25.35;;;14.32;;
52854;SDS011;38719;51.418;7.286;2023-05-02T04:25:15;21.98;;;12.63;;
52854;SDS011;38719;51.418;7.286;2023-05-02T04:27:43;21.67;;;12.55;;
52854;SDS011;38719;51.418;7.286;2023-05-02T04:30:12;21.15;;;12.60;;
52854;SDS011;38719;51.418;7.286;2023-05-02T04:32:40;27.10;;;12.80;;
52854;SDS011;38719;51.418;7.286;2023-05-02T04:35:07;24.13;;;12.77;;
52854;SDS011;38719;51.418;7.286;2023-05-02T04:37:35;25.67;;;12.60;;
52854;SDS011;38719;51.418;7.286;2023-05-02T04:40:03;24.88;;;12.07;;
52854;SDS011;38719;51.418;7.286;2023-05-02T04:42:33;23.35;;;11.65;;
52854;SDS011;38719;51.418;7.286;2023-05-02T04:45:00;23.67;;;12.60;;
52854;SDS011;38719;51.418;7.286;2023-05-02T04:47:29;23.42;;;11.68;;
52854;SDS011;38719;51.418;7.286;2023-05-02T04:49:57;24.17;;;12.35;;
52854;SDS011;38719;51.418;7.286;2023-05-02T04:52:24;21.02;;;10.55;;
52854;SDS011;38719;51.418;7.286;2023-05-02T04:54:52;20.73;;;10.77;;
52854;SDS011;38719;51.418;7.286;2023-05-02T04:57:19;23.30;;;12.02;;
52854;SDS011;38719;51.418;7.286;2023-05-02T04:59:48;21.55;;;12.48;;
52854;SDS011;38719;51.418;7.286;2023-05-02T05:02:16;23.30;;;11.07;;
52854;SDS011;38719;51.418;7.286;2023-05-02T05:04:45;23.52;;;11.25;;
52854;SDS011;38719;51.418;7.286;2023-05-02T05:07:12;22.92;;;11.43;;
52854;SDS011;38719;51.418;7.286;2023-05-02T05:09:40;23.27;;;11.43;;
52854;SDS011;38719;51.418;7.286;2023-05-02T05:12:07;22.50;;;11.88;;
52854;SDS011;38719;51.418;7.286;2023-05-02T05:14:35;22.45;;;11.00;;
52854;SDS011;38719;51.418;7.286;2023-05-02T05:17:02;24.30;;;11.80;;
52854;SDS011;38719;51.418;7.286;2023-05-02T05:19:30;24.30;;;13.27;;
52854;SDS011;38719;51.418;7.286;2023-05-02T05:21:59;25.40;;;11.30;;
52854;SDS011;38719;51.418;7.286;2023-05-02T05:24:26;26.45;;;12.57;;
52854;SDS011;38719;51.418;7.286;2023-05-02T05:26:54;31.15;;;13.75;;
52854;SDS011;38719;51.418;7.286;2023-05-02T05:29:21;34.83;;;13.57;;
52854;SDS011;38719;51.418;7.286;2023-05-02T05:31:49;23.00;;;11.60;;
52854;SDS011;38719;51.418;7.286;2023-05-02T05:34:16;25.40;;;12.55;;
52854;SDS011;38719;51.418;7.286;2023-05-02T05:36:44;26.73;;;12.57;;
52854;SDS011;38719;51.418;7.286;2023-05-02T05:39:13;26.73;;;13.25;;
52854;SDS011;38719;51.418;7.286;2023-05-02T05:41:40;26.20;;;13.35;;
52854;SDS011;38719;51.418;7.286;2023-05-02T05:44:08;22.08;;;11.60;;
52854;SDS011;38719;51.418;7.286;2023-05-02T05:46:35;17.42;;;9.63;;
52854;SDS011;38719;51.418;7.286;2023-05-02T05:49:03;15.43;;;9.30;;
52854;SDS011;38719;51.418;7.286;2023-05-02T05:51:31;17.17;;;9.20;;
52854;SDS011;38719;51.418;7.286;2023-05-02T05:53:58;13.25;;;7.50;;
52854;SDS011;38719;51.418;7.286;2023-05-02T05:56:28;12.68;;;6.72;;
52854;SDS011;38719;51.418;7.286;2023-05-02T05:58:55;14.65;;;6.10;;
52854;SDS011;38719;51.418;7.286;2023-05-02T06:01:23;11.50;;;5.90;;
52854;SDS011;38719;51.418;7.286;2023-05-02T06:03:51;9.68;;;5.68;;
52854;SDS011;38719;51.418;7.286;2023-05-02T06:06:18;9.57;;;5.78;;
52854;SDS011;38719;51.418;7.286;2023-05-02T06:08:46;9.75;;;5.32;;
52854;SDS011;38719;51.418;7.286;2023-05-02T06:11:13;8.50;;;5.25;;
52854;SDS011;38719;51.418;7.286;2023-05-02T06:13:42;9.10;;;5.45;;
52854;SDS011;38719;51.418;7.286;2023-05-02T06:16:10;9.63;;;5.13;;
52854;SDS011;38719;51.418;7.286;2023-05-02T06:18:37;10.30;;;5.95;;
52854;SDS011;38719;51.418;7.286;2023-05-02T06:21:05;9.55;;;7.05;;
52854;SDS011;38719;51.418;7.286;2023-05-02T06:23:32;14.13;;;6.63;;
52854;SDS011;38719;51.418;7.286;2023-05-02T06:26:00;15.40;;;6.97;;
52854;SDS011;38719;51.418;7.286;2023-05-02T06:28:28;16.67;;;6.78;;
52854;SDS011;38719;51.418;7.286;2023-05-02T06:30:58;10.23;;;7.07;;
52854;SDS011;38719;51.418;7.286;2023-05-02T06:33:27;14.52;;;6.32;;
52854;SDS011;38719;51.418;7.286;2023-05-02T06:35:55;10.40;;;5.38;;
52854;SDS011;38719;51.418;7.286;2023-05-02T06:38:26;13.35;;;5.75;;
52854;SDS011;38719;51.418;7.286;2023-05-02T06:40:54;9.25;;;5.75;;
52854;SDS011;38719;51.418;7.286;2023-05-02T06:43:21;10.95;;;5.93;;
52854;SDS011;38719;51.418;7.286;2023-05-02T06:45:51;13.35;;;5.55;;
52854;SDS011;38719;51.418;7.286;2023-05-02T06:48:20;10.15;;;5.55;;
52854;SDS011;38719;51.418;7.286;2023-05-02T06:50:47;8.48;;;4.93;;
52854;SDS011;38719;51.418;7.286;2023-05-02T06:53:15;11.95;;;5.60;;
52854;SDS011;38719;51.418;7.286;2023-05-02T06:55:43;15.40;;;5.70;;
52854;SDS011;38719;51.418;7.286;2023-05-02T06:58:10;13.63;;;5.82;;
52854;SDS011;38719;51.418;7.286;2023-05-02T07:00:38;13.75;;;5.47;;
52854;SDS011;38719;51.418;7.286;2023-05-02T07:03:06;13.32;;;5.80;;
52854;SDS011;38719;51.418;7.286;2023-05-02T07:05:35;11.90;;;5.15;;
52854;SDS011;38719;51.418;7.286;2023-05-02T07:08:03;10.98;;;4.65;;
52854;SDS011;38719;51.418;7.286;2023-05-02T07:10:30;11.25;;;5.45;;
52854;SDS011;38719;51.418;7.286;2023-05-02T07:12:58;10.27;;;4.95;;
52854;SDS011;38719;51.418;7.286;2023-05-02T07:15:26;9.07;;;4.78;;
52854;SDS011;38719;51.418;7.286;2023-05-02T07:17:53;10.68;;;4.80;;
52854;SDS011;38719;51.418;7.286;2023-05-02T07:20:21;10.48;;;5.32;;
52854;SDS011;38719;51.418;7.286;2023-05-02T07:22:50;6.90;;;4.40;;
52854;SDS011;38719;51.418;7.286;2023-05-02T07:25:18;10.13;;;4.63;;
52854;SDS011;38719;51.418;7.286;2023-05-02T07:27:45;7.00;;;4.50;;
52854;SDS011;38719;51.418;7.286;2023-05-02T07:30:13;21.00;;;4.95;;
52854;SDS011;38719;51.418;7.286;2023-05-02T07:32:40;13.15;;;5.10;;
52854;SDS011;38719;51.418;7.286;2023-05-02T07:35:08;7.85;;;4.57;;
52854;SDS011;38719;51.418;7.286;2023-05-02T07:37:35;7.80;;;4.75;;
52854;SDS011;38719;51.418;7.286;2023-05-02T07:40:05;11.05;;;4.30;;
52854;SDS011;38719;51.418;7.286;2023-05-02T07:42:34;9.93;;;4.43;;
52854;SDS011;38719;51.418;7.286;2023-05-02T07:45:02;13.05;;;4.60;;
52854;SDS011;38719;51.418;7.286;2023-05-02T07:47:30;5.38;;;4.03;;
52854;SDS011;38719;51.418;7.286;2023-05-02T07:49:57;8.48;;;4.22;;
52854;SDS011;38719;51.418;7.286;2023-05-02T07:52:25;7.20;;;4.32;;
52854;SDS011;38719;51.418;7.286;2023-05-02T07:54:53;5.40;;;3.72;;
52854;SDS011;38719;51.418;7.286;2023-05-02T07:57:22;12.10;;;4.40;;
52854;SDS011;38719;51.418;7.286;2023-05-02T07:59:50;7.78;;;4.68;;
52854;SDS011;38719;51.418;7.286;2023-05-02T08:02:18;7.93;;;4.57;;
52854;SDS011;38719;51.418;7.286;2023-05-02T08:04:49;11.00;;;4.30;;
52854;SDS011;38719;51.418;7.286;2023-05-02T08:07:16;6.13;;;4.25;;
52854;SDS011;38719;51.418;7.286;2023-05-02T08:09:44;5.00;;;3.85;;
52854;SDS011;38719;51.418;7.286;2023-05-02T08:12:11;4.82;;;3.92;;
52854;SDS011;38719;51.418;7.286;2023-05-02T08:14:40;5.03;;;3.83;;
52854;SDS011;38719;51.418;7.286;2023-05-02T08:17:08;5.00;;;3.38;;
52854;SDS011;38719;51.418;7.286;2023-05-02T08:19:36;3.85;;;3.08;;
52854;SDS011;38719;51.418;7.286;2023-05-02T08:22:03;4.20;;;2.88;;
52854;SDS011;38719;51.418;7.286;2023-05-02T08:24:32;3.20;;;2.88;;
52854;SDS011;38719;51.418;7.286;2023-05-02T08:27:00;3.47;;;2.67;;
52854;SDS011;38719;51.418;7.286;2023-05-02T08:29:28;6.72;;;2.92;;
52854;SDS011;38719;51.418;7.286;2023-05-02T08:31:57;6.10;;;2.72;;
52854;SDS011;38719;51.418;7.286;2023-05-02T08:34:25;3.42;;;2.60;;
52854;SDS011;38719;51.418;7.286;2023-05-02T08:36:53;4.53;;;2.75;;
52854;SDS011;38719;51.418;7.286;2023-05-02T08:39:23;5.32;;;3.20;;
52854;SDS011;38719;51.418;7.286;2023-05-02T08:41:51;6.18;;;3.53;;
52854;SDS011;38719;51.418;7.286;2023-05-02T08:44:19;3.90;;;3.38;;
52854;SDS011;38719;51.418;7.286;2023-05-02T08:46:47;5.93;;;3.03;;
52854;SDS011;38719;51.418;7.286;2023-05-02T08:49:18;8.85;;;4.15;;
52854;SDS011;38719;51.418;7.286;2023-05-02T08:51:47;45.58;;;28.58;;
52854;SDS011;38719;51.418;7.286;2023-05-02T08:54:16;75.97;;;36.67;;
52854;SDS011;38719;51.418;7.286;2023-05-02T08:56:46;13.70;;;7.28;;
52854;SDS011;38719;51.418;7.286;2023-05-02T08:59:14;11.68;;;3.90;;
52854;SDS011;38719;51.418;7.286;2023-05-02T09:01:42;7.18;;;3.78;;
52854;SDS011;38719;51.418;7.286;2023-05-02T09:04:11;4.95;;;3.17;;
52854;SDS011;38719;51.418;7.286;2023-05-02T09:06:41;11.85;;;4.20;;
52854;SDS011;38719;51.418;7.286;2023-05-02T09:09:08;13.63;;;4.10;;
52854;SDS011;38719;51.418;7.286;2023-05-02T09:11:36;6.75;;;3.80;;
52854;SDS011;38719;51.418;7.286;2023-05-02T09:14:07;6.70;;;3.83;;
52854;SDS011;38719;51.418;7.286;2023-05-02T09:16:40;12.45;;;4.25;;
52854;SDS011;38719;51.418;7.286;2023-05-02T09:19:08;8.20;;;4.93;;
52854;SDS011;38719;51.418;7.286;2023-05-02T09:21:37;9.30;;;4.53;;
52854;SDS011;38719;51.418;7.286;2023-05-02T09:24:14;13.02;;;4.65;;
52854;SDS011;38719;51.418;7.286;2023-05-02T09:26:43;8.68;;;4.20;;
52854;SDS011;38719;51.418;7.286;2023-05-02T09:29:23;9.07;;;4.50;;
52854;SDS011;38719;51.418;7.286;2023-05-02T09:31:51;11.98;;;5.22;;
52854;SDS011;38719;51.418;7.286;2023-05-02T09:34:22;27.83;;;15.63;;
52854;SDS011;38719;51.418;7.286;2023-05-02T09:36:50;25.80;;;14.75;;
52854;SDS011;38719;51.418;7.286;2023-05-02T09:39:21;6.32;;;4.15;;
52854;SDS011;38719;51.418;7.286;2023-05-02T09:41:51;6.07;;;3.90;;
52854;SDS011;38719;51.418;7.286;2023-05-02T09:44:20;12.35;;;4.82;;
52854;SDS011;38719;51.418;7.286;2023-05-02T09:46:49;7.53;;;3.88;;
52854;SDS011;38719;51.418;7.286;2023-05-02T09:49:18;5.93;;;3.97;;
52854;SDS011;38719;51.418;7.286;2023-05-02T09:51:46;9.45;;;3.75;;
52854;SDS011;38719;51.418;7.286;2023-05-02T09:54:14;5.93;;;3.47;;
52854;SDS011;38719;51.418;7.286;2023-05-02T09:57:02;11.10;;;3.97;;
52854;SDS011;38719;51.418;7.286;2023-05-02T09:59:32;6.47;;;4.38;;
52854;SDS011;38719;51.418;7.286;2023-05-02T10:02:00;6.78;;;4.15;;
52854;SDS011;38719;51.418;7.286;2023-05-02T10:04:30;4.10;;;3.50;;
52854;SDS011;38719;51.418;7.286;2023-05-02T10:06:58;11.73;;;3.63;;
52854;SDS011;38719;51.418;7.286;2023-05-02T10:09:27;5.88;;;3.83;;
52854;SDS011;38719;51.418;7.286;2023-05-02T10:12:00;7.50;;;3.42;;
52854;SDS011;38719;51.418;7.286;2023-05-02T10:14:30;7.80;;;4.20;;
52854;SDS011;38719;51.418;7.286;2023-05-02T10:17:03;6.07;;;3.65;;
52854;SDS011;38719;51.418;7.286;2023-05-02T10:19:38;7.03;;;4.10;;
52854;SDS011;38719;51.418;7.286;2023-05-02T10:22:11;21.38;;;5.10;;
52854;SDS011;38719;51.418;7.286;2023-05-02T10:24:39;7.57;;;3.83;;
52854;SDS011;38719;51.418;7.286;2023-05-02T10:27:08;8.55;;;4.45;;
52854;SDS011;38719;51.418;7.286;2023-05-02T10:29:36;14.77;;;4.10;;
52854;SDS011;38719;51.418;7.286;2023-05-02T10:32:05;7.75;;;3.90;;
52854;SDS011;38719;51.418;7.286;2023-05-02T10:34:34;5.30;;;3.50;;
52854;SDS011;38719;51.418;7.286;2023-05-02T10:37:02;9.38;;;4.18;;
52854;SDS011;38719;51.418;7.286;2023-05-02T10:39:30;6.95;;;4.00;;
52854;SDS011;38719;51.418;7.286;2023-05-02T10:41:58;8.23;;;4.72;;
52854;SDS011;38719;51.418;7.286;2023-05-02T10:44:33;8.95;;;4.88;;
52854;SDS011;38719;51.418;7.286;2023-05-02T10:47:16;9.45;;;4.80;;
52854;SDS011;38719;51.418;7.286;2023-05-02T10:49:48;9.90;;;5.57;;
52854;SDS011;38719;51.418;7.286;2023-05-02T10:52:27;7.20;;;4.97;;
52854;SDS011;38719;51.418;7.286;2023-05-02T10:55:14;9.13;;;5.25;;
52854;SDS011;38719;51.418;7.286;2023-05-02T11:00:48;13.20;;;5.97;;
52854;SDS011;38719;51.418;7.286;2023-05-02T11:06:13;13.48;;;5.63;;
52854;SDS011;38719;51.418;7.286;2023-05-02T11:08:42;9.80;;;5.55;;
52854;SDS011;38719;51.418;7.286;2023-05-02T11:14:07;18.33;;;6.53;;
52854;SDS011;38719;51.418;7.286;2023-05-02T11:22:51;10.45;;;6.18;;
52854;SDS011;38719;51.418;7.286;2023-05-02T11:25:34;15.88;;;7.07;;
52854;SDS011;38719;51.418;7.286;2023-05-02T11:28:05;12.48;;;7.15;;
52854;SDS011;38719;51.418;7.286;2023-05-02T11:30:38;12.77;;;6.63;;
52854;SDS011;38719;51.418;7.286;2023-05-02T11:33:13;16.63;;;7.45;;
52854;SDS011;38719;51.418;7.286;2023-05-02T11:35:43;13.63;;;6.97;;
52854;SDS011;38719;51.418;7.286;2023-05-02T11:38:13;14.48;;;6.70;;
52854;SDS011;38719;51.418;7.286;2023-05-02T11:40:51;10.55;;;6.90;;
52854;SDS011;38719;51.418;7.286;2023-05-02T11:43:24;12.10;;;6.53;;
52854;SDS011;38719;51.418;7.286;2023-05-02T11:45:56;9.23;;;5.65;;
52854;SDS011;38719;51.418;7.286;2023-05-02T11:48:27;8.65;;;5.70;;
52854;SDS011;38719;51.418;7.286;2023-05-02T11:50:55;10.82;;;4.78;;
52854;SDS011;38719;51.418;7.286;2023-05-02T11:53:24;10.10;;;5.15;;
52854;SDS011;38719;51.418;7.286;2023-05-02T11:55:54;14.23;;;5.13;;
52854;SDS011;38719;51.418;7.286;2023-05-02T11:58:24;10.05;;;5.63;;
52854;SDS011;38719;51.418;7.286;2023-05-02T12:00:54;9.32;;;4.75;;
52854;SDS011;38719;51.418;7.286;2023-05-02T12:03:23;11.98;;;5.03;;
52854;SDS011;38719;51.418;7.286;2023-05-02T12:05:55;7.35;;;5.07;;
52854;SDS011;38719;51.418;7.286;2023-05-02T12:08:24;9.00;;;4.75;;
52854;SDS011;38719;51.418;7.286;2023-05-02T12:10:53;8.98;;;4.60;;
52854;SDS011;38719;51.418;7.286;2023-05-02T12:13:22;9.43;;;4.72;;
52854;SDS011;38719;51.418;7.286;2023-05-02T12:15:51;11.80;;;4.63;;
52854;SDS011;38719;51.418;7.286;2023-05-02T12:18:20;10.68;;;4.43;;
52854;SDS011;38719;51.418;7.286;2023-05-02T12:20:49;10.48;;;4.43;;
52854;SDS011;38719;51.418;7.286;2023-05-02T12:23:20;7.88;;;4.30;;
52854;SDS011;38719;51.418;7.286;2023-05-02T12:25:48;6.07;;;3.97;;
52854;SDS011;38719;51.418;7.286;2023-05-02T12:28:16;9.38;;;3.83;;
52854;SDS011;38719;51.418;7.286;2023-05-02T12:30:46;9.10;;;4.20;;
52854;SDS011;38719;51.418;7.286;2023-05-02T12:33:15;8.18;;;3.92;;
52854;SDS011;38719;51.418;7.286;2023-05-02T12:35:43;7.93;;;3.70;;
52854;SDS011;38719;51.418;7.286;2023-05-02T12:38:13;11.43;;;4.03;;
52854;SDS011;38719;51.418;7.286;2023-05-02T12:40:47;7.65;;;3.97;;
52854;SDS011;38719;51.418;7.286;2023-05-02T12:43:15;10.98;;;4.00;;
52854;SDS011;38719;51.418;7.286;2023-05-02T12:45:43;7.28;;;3.72;;
52854;SDS011;38719;51.418;7.286;2023-05-02T12:48:16;5.57;;;3.60;;
52854;SDS011;38719;51.418;7.286;2023-05-02T12:50:45;6.47;;;4.00;;
52854;SDS011;38719;51.418;7.286;2023-05-02T12:53:13;10.27;;;4.00;;
52854;SDS011;38719;51.418;7.286;2023-05-02T12:55:41;11.23;;;3.65;;
52854;SDS011;38719;51.418;7.286;2023-05-02T12:58:10;7.88;;;4.30;;
52854;SDS011;38719;51.418;7.286;2023-05-02T13:00:39;10.45;;;4.45;;
52854;SDS011;38719;51.418;7.286;2023-05-02T13:03:11;5.32;;;3.92;;
52854;SDS011;38719;51.418;7.286;2023-05-02T13:05:39;5.82;;;4.28;;
52854;SDS011;38719;51.418;7.286;2023-05-02T13:08:06;11.70;;;4.07;;
52854;SDS011;38719;51.418;7.286;2023-05-02T13:10:34;7.50;;;4.00;;
52854;SDS011;38719;51.418;7.286;2023-05-02T13:13:01;6.55;;;3.72;;
52854;SDS011;38719;51.418;7.286;2023-05-02T13:15:30;5.90;;;3.50;;
52854;SDS011;38719;51.418;7.286;2023-05-02T13:17:58;7.13;;;3.60;;
52854;SDS011;38719;51.418;7.286;2023-05-02T13:20:26;9.75;;;3.20;;
52854;SDS011;38719;51.418;7.286;2023-05-02T13:22:54;7.55;;;3.58;;
52854;SDS011;38719;51.418;7.286;2023-05-02T13:25:21;20.38;;;4.18;;
52854;SDS011;38719;51.418;7.286;2023-05-02T13:27:49;6.65;;;4.10;;
52854;SDS011;38719;51.418;7.286;2023-05-02T13:30:16;6.78;;;4.18;;
52854;SDS011;38719;51.418;7.286;2023-05-02T13:32:45;5.57;;;3.92;;
52854;SDS011;38719;51.418;7.286;2023-05-02T13:35:13;8.63;;;4.00;;
52854;SDS011;38719;51.418;7.286;2023-05-02T13:37:41;5.30;;;3.90;;
52854;SDS011;38719;51.418;7.286;2023-05-02T13:40:08;10.95;;;5.57;;
52854;SDS011;38719;51.418;7.286;2023-05-02T13:42:36;6.15;;;3.92;;
52854;SDS011;38719;51.418;7.286;2023-05-02T13:45:04;7.22;;;4.18;;
52854;SDS011;38719;51.418;7.286;2023-05-02T13:47:33;7.75;;;3.80;;
52854;SDS011;38719;51.418;7.286;2023-05-02T13:50:02;7.03;;;3.95;;
52854;SDS011;38719;51.418;7.286;2023-05-02T13:52:30;6.60;;;4.25;;
52854;SDS011;38719;51.418;7.286;2023-05-02T13:54:57;12.30;;;4.97;;
52854;SDS011;38719;51.418;7.286;2023-05-02T13:57:25;13.30;;;4.10;;
52854;SDS011;38719;51.418;7.286;2023-05-02T13:59:52;11.95;;;4.53;;
52854;SDS011;38719;51.418;7.286;2023-05-02T14:02:20;7.50;;;4.35;;
52854;SDS011;38719;51.418;7.286;2023-05-02T14:04:48;11.07;;;4.35;;
52854;SDS011;38719;51.418;7.286;2023-05-02T14:07:17;5.00;;;4.13;;
52854;SDS011;38719;51.418;7.286;2023-05-02T14:09:44;7.05;;;4.10;;
52854;SDS011;38719;51.418;7.286;2023-05-02T14:12:12;9.23;;;4.13;;
52854;SDS011;38719;51.418;7.286;2023-05-02T14:14:39;8.48;;;4.43;;
52854;SDS011;38719;51.418;7.286;2023-05-02T14:17:07;6.03;;;4.03;;
52854;SDS011;38719;51.418;7.286;2023-05-02T14:19:34;8.95;;;4.18;;
52854;SDS011;38719;51.418;7.286;2023-05-02T14:22:02;8.77;;;4.00;;
52854;SDS011;38719;51.418;7.286;2023-05-02T14:24:30;9.45;;;3.75;;
52854;SDS011;38719;51.418;7.286;2023-05-02T14:26:58;6.65;;;3.97;;
52854;SDS011;38719;51.418;7.286;2023-05-02T14:29:26;8.82;;;3.42;;
52854;SDS011;38719;51.418;7.286;2023-05-02T14:31:54;5.32;;;3.80;;
52854;SDS011;38719;51.418;7.286;2023-05-02T14:34:21;7.43;;;4.03;;
52854;SDS011;38719;51.418;7.286;2023-05-02T14:36:52;7.30;;;4.40;;
52854;SDS011;38719;51.418;7.286;2023-05-02T14:39:19;9.95;;;4.32;;
52854;SDS011;38719;51.418;7.286;2023-05-02T14:41:48;11.77;;;4.20;;
52854;SDS011;38719;51.418;7.286;2023-05-02T14:44:15;6.82;;;4.45;;
52854;SDS011;38719;51.418;7.286;2023-05-02T14:46:43;8.43;;;4.07;;
52854;SDS011;38719;51.418;7.286;2023-05-02T14:49:11;7.88;;;4.07;;
52854;SDS011;38719;51.418;7.286;2023-05-02T14:51:38;8.80;;;4.53;;
52854;SDS011;38719;51.418;7.286;2023-05-02T14:54:06;7.28;;;4.22;;
52854;SDS011;38719;51.418;7.286;2023-05-02T14:56:33;7.72;;;4.13;;
52854;SDS011;38719;51.418;7.286;2023-05-02T14:59:02;9.30;;;4.30;;
52854;SDS011;38719;51.418;7.286;2023-05-02T15:01:29;12.95;;;4.30;;
52854;SDS011;38719;51.418;7.286;2023-05-02T15:03:57;16.75;;;5.28;;
52854;SDS011;38719;51.418;7.286;2023-05-02T15:06:32;7.45;;;4.28;;